createdAt,value
2018-06-04T00:01:49.232Z,5.70
2018-06-04T00:04:29.344Z,5.47
2018-06-04T00:07:09.895Z,5.33
2018-06-04T00:09:44.055Z,5.73
2018-06-04T00:12:13.056Z,6.00
2018-06-04T00:14:47.397Z,6.20
2018-06-04T00:17:21.481Z,7.07
2018-06-04T00:19:58.385Z,8.00
2018-06-04T00:22:39.027Z,7.77
2018-06-04T00:25:21.588Z,8.27
2018-06-04T00:27:50.942Z,7.87
2018-06-04T00:30:23.356Z,10.03
2018-06-04T00:33:02.336Z,11.50
2018-06-04T00:35:32.561Z,13.67
2018-06-04T00:38:02.000Z,11.37
2018-06-04T00:40:30.905Z,12.23
2018-06-04T00:42:59.629Z,10.80
2018-06-04T00:45:34.794Z,10.40
2018-06-04T00:48:08.335Z,9.77
2018-06-04T00:50:49.260Z,8.77
2018-06-04T00:53:27.203Z,10.20
2018-06-04T00:56:13.702Z,9.40
2018-06-04T00:58:42.467Z,13.43
2018-06-04T01:01:14.650Z,14.20
2018-06-04T01:03:44.169Z,17.70
2018-06-04T01:06:21.951Z,15.73
2018-06-04T01:08:53.497Z,16.53
2018-06-04T01:11:32.662Z,16.77
2018-06-04T01:14:05.264Z,19.33
2018-06-04T01:16:40.685Z,18.20
2018-06-04T01:19:15.524Z,17.83
2018-06-04T01:21:50.148Z,18.60
2018-06-04T01:24:27.530Z,20.10
2018-06-04T01:26:59.949Z,20.13
2018-06-04T01:29:34.612Z,18.47
2018-06-04T01:32:09.869Z,18.43
2018-06-04T01:34:38.557Z,18.27
2018-06-04T01:37:12.129Z,18.33
2018-06-04T01:39:43.736Z,15.30
2018-06-04T01:42:15.578Z,15.13
2018-06-04T01:44:44.685Z,15.80
2018-06-04T01:47:15.443Z,14.70
2018-06-04T01:49:45.575Z,16.73
2018-06-04T01:52:17.985Z,15.33
2018-06-04T01:54:54.401Z,15.50
2018-06-04T01:57:31.155Z,16.43
2018-06-04T02:00:00.635Z,16.93
2018-06-04T02:02:38.513Z,17.00
2018-06-04T02:05:13.685Z,20.77
2018-06-04T02:07:47.480Z,19.60
2018-06-04T02:10:22.852Z,16.87
2018-06-04T02:12:54.064Z,17.50
2018-06-04T02:15:31.090Z,17.03
2018-06-04T02:18:05.970Z,16.57
2018-06-04T02:20:45.409Z,15.97
2018-06-04T02:23:16.782Z,16.10
2018-06-04T02:25:54.787Z,15.53
2018-06-04T02:28:29.531Z,17.13
2018-06-04T02:31:00.383Z,16.93
2018-06-04T02:33:34.766Z,19.33
2018-06-04T02:36:09.548Z,17.03
2018-06-04T02:38:49.797Z,18.40
2018-06-04T02:41:22.281Z,17.90
2018-06-04T02:43:56.780Z,19.13
2018-06-04T02:46:35.919Z,19.07
2018-06-04T02:49:05.250Z,18.50
2018-06-04T02:51:38.627Z,20.07
2018-06-04T02:54:12.162Z,19.20
2018-06-04T02:56:42.293Z,20.43
2018-06-04T02:59:11.138Z,20.20
2018-06-04T03:01:43.936Z,19.23
2018-06-04T03:04:14.310Z,18.33
2018-06-04T03:06:43.052Z,20.37
2018-06-04T03:09:17.035Z,20.27
2018-06-04T03:11:47.849Z,20.07
2018-06-04T03:14:28.437Z,18.17
2018-06-04T03:16:58.690Z,23.50
2018-06-04T03:19:33.468Z,22.33
2018-06-04T03:22:06.850Z,21.90
2018-06-04T03:24:42.678Z,21.27
2018-06-04T03:27:17.291Z,19.70
2018-06-04T03:29:47.470Z,21.97
2018-06-04T03:32:20.158Z,21.63
2018-06-04T03:34:52.067Z,23.43
2018-06-04T03:37:23.087Z,25.27
2018-06-04T03:39:59.596Z,25.27
2018-06-04T03:42:29.170Z,27.60
2018-06-04T03:44:57.996Z,31.20
2018-06-04T03:47:27.704Z,32.07
2018-06-04T03:50:04.658Z,33.07
2018-06-04T03:52:38.606Z,35.30
2018-06-04T03:55:20.053Z,40.97
2018-06-04T03:57:50.594Z,41.47
2018-06-04T04:00:28.868Z,44.27
2018-06-04T04:03:02.933Z,43.53
2018-06-04T04:05:38.568Z,50.13
2018-06-04T04:08:13.366Z,46.53
2018-06-04T04:10:49.011Z,48.87
2018-06-04T04:13:24.305Z,48.00
2018-06-04T04:15:57.468Z,47.80
2018-06-04T04:18:38.968Z,50.73
2018-06-04T04:21:11.934Z,63.60
2018-06-04T04:23:42.303Z,45.93
2018-06-04T04:26:20.574Z,41.80
2018-06-04T04:28:59.423Z,49.47
2018-06-04T04:31:35.388Z,44.67
2018-06-04T04:34:10.405Z,49.93
2018-06-04T04:36:44.926Z,44.87
2018-06-04T04:39:16.677Z,43.97
2018-06-04T04:41:56.709Z,41.33
2018-06-04T04:44:26.760Z,44.53
2018-06-04T04:46:59.543Z,44.33
2018-06-04T04:49:31.394Z,51.73
2018-06-04T04:52:07.578Z,47.07
2018-06-04T04:54:49.707Z,43.40
2018-06-04T04:57:20.139Z,46.13
2018-06-04T04:59:50.584Z,47.20
2018-06-04T05:02:22.759Z,44.23
2018-06-04T05:05:03.087Z,50.23
2018-06-04T05:07:34.405Z,48.40
2018-06-04T05:10:04.469Z,44.47
2018-06-04T05:12:43.339Z,39.60
2018-06-04T05:15:15.061Z,43.60
2018-06-04T05:17:58.594Z,47.50
2018-06-04T05:20:30.470Z,45.10
2018-06-04T05:22:59.189Z,39.07
2018-06-04T05:25:29.256Z,42.93
2018-06-04T05:28:22.876Z,43.90
2018-06-04T05:31:04.784Z,39.27
2018-06-04T05:33:47.093Z,44.83
2018-06-04T05:36:53.072Z,45.13
2018-06-04T05:39:31.449Z,38.27
2018-06-04T05:42:00.483Z,39.73
2018-06-04T05:44:36.697Z,34.80
2018-06-04T05:47:20.613Z,38.10
2018-06-04T05:49:50.041Z,40.47
2018-06-04T05:52:20.974Z,32.40
2018-06-04T05:54:51.023Z,35.20
2018-06-04T05:57:33.087Z,31.73
2018-06-04T06:00:10.604Z,33.40
2018-06-04T06:02:42.019Z,38.60
2018-06-04T06:05:11.513Z,36.53
2018-06-04T06:07:45.097Z,31.37
2018-06-04T06:10:16.336Z,31.70
2018-06-04T06:13:00.825Z,29.03
2018-06-04T06:15:30.653Z,32.07
2018-06-04T06:18:00.611Z,27.87
2018-06-04T06:20:35.233Z,29.43
2018-06-04T06:23:10.048Z,24.67
2018-06-04T06:25:41.681Z,28.00
2018-06-04T06:28:19.270Z,29.47
2018-06-04T06:30:57.264Z,29.97
2018-06-04T06:33:38.956Z,29.10
2018-06-04T06:36:08.672Z,25.37
2018-06-04T06:38:38.297Z,25.30
2018-06-04T06:41:14.096Z,26.20
2018-06-04T06:43:49.213Z,27.40
2018-06-04T06:46:30.630Z,23.93
2018-06-04T06:48:59.984Z,25.13
2018-06-04T06:51:37.056Z,28.97
2018-06-04T06:54:13.271Z,26.07
2018-06-04T06:56:51.753Z,25.23
2018-06-04T06:59:22.032Z,24.93
2018-06-04T07:02:05.162Z,23.00
2018-06-04T07:04:37.967Z,25.37
2018-06-04T07:07:07.712Z,23.50
2018-06-04T07:09:44.489Z,21.87
2018-06-04T07:12:20.185Z,22.23
2018-06-04T07:15:01.654Z,24.53
2018-06-04T07:17:40.851Z,24.53
2018-06-04T07:20:11.229Z,21.03
2018-06-04T07:22:45.164Z,26.07
2018-06-04T07:25:15.476Z,29.77
2018-06-04T07:27:44.182Z,25.80
2018-06-04T07:30:15.647Z,25.87
2018-06-04T07:33:01.462Z,25.07
2018-06-04T07:35:38.776Z,26.10
2018-06-04T07:38:14.384Z,24.77
2018-06-04T07:40:56.837Z,28.33
2018-06-04T07:43:31.242Z,25.00
2018-06-04T07:46:13.308Z,24.40
2018-06-04T07:48:41.991Z,23.93
2018-06-04T07:51:19.891Z,22.30
2018-06-04T07:53:53.419Z,22.43
2018-06-04T07:56:34.060Z,22.30
2018-06-04T07:59:10.263Z,24.17
2018-06-04T08:01:40.202Z,24.17
2018-06-04T08:04:18.518Z,22.43
2018-06-04T08:06:50.973Z,25.97
2018-06-04T08:09:33.117Z,26.40
2018-06-04T08:12:09.652Z,25.13
2018-06-04T08:14:40.448Z,25.33
2018-06-04T08:17:26.931Z,25.90
2018-06-04T08:20:05.069Z,23.63
2018-06-04T08:22:44.150Z,26.07
2018-06-04T08:25:24.218Z,26.77
2018-06-04T08:27:52.896Z,31.47
2018-06-04T08:30:25.142Z,33.07
2018-06-04T08:33:01.169Z,31.27
2018-06-04T08:35:32.404Z,34.97
2018-06-04T08:38:06.685Z,27.13
2018-06-04T08:40:37.175Z,27.23
2018-06-04T08:43:07.488Z,26.93
2018-06-04T08:45:44.948Z,28.13
2018-06-04T08:48:15.095Z,28.53
2018-06-04T08:50:44.035Z,35.73
2018-06-04T08:53:17.342Z,29.83
2018-06-04T08:55:49.844Z,29.60
2018-06-04T08:58:29.227Z,26.77
2018-06-04T09:00:57.713Z,23.67
2018-06-04T09:03:29.066Z,25.17
2018-06-04T09:05:59.217Z,24.67
2018-06-04T09:08:29.449Z,23.80
2018-06-04T09:11:01.437Z,22.63
2018-06-04T09:13:36.125Z,23.57
2018-06-04T09:16:14.839Z,20.70
2018-06-04T09:18:44.212Z,21.67
2018-06-04T09:21:21.085Z,24.27
2018-06-04T09:23:50.630Z,21.47
2018-06-04T09:26:30.189Z,20.67
2018-06-04T09:28:59.041Z,20.47
2018-06-04T09:34:12.807Z,19.80
2018-06-04T09:36:41.336Z,16.03
2018-06-04T09:39:10.046Z,17.67
2018-06-04T09:41:39.869Z,15.20
2018-06-04T09:44:09.076Z,15.93
2018-06-04T09:46:38.046Z,15.43
2018-06-04T09:49:12.545Z,19.37
2018-06-04T09:51:42.376Z,14.40
2018-06-04T09:54:12.190Z,12.97
2018-06-04T09:56:51.620Z,14.80
2018-06-04T09:59:20.497Z,15.33
2018-06-04T10:01:49.172Z,14.83
2018-06-04T10:04:19.454Z,30.57
2018-06-04T10:06:53.561Z,13.00
2018-06-04T10:09:22.956Z,13.17
2018-06-04T10:11:52.319Z,13.60
2018-06-04T10:14:28.040Z,16.00
2018-06-04T10:16:59.738Z,12.30
2018-06-04T10:19:28.951Z,13.13
2018-06-04T10:22:03.739Z,13.57
2018-06-04T10:24:46.791Z,12.67
2018-06-04T10:27:29.217Z,32.30
2018-06-04T10:29:58.763Z,11.63
2018-06-04T10:32:33.272Z,10.67
2018-06-04T10:35:12.536Z,13.43
2018-06-04T10:37:44.544Z,13.87
2018-06-04T10:40:14.194Z,13.00
2018-06-04T10:42:43.727Z,14.07
2018-06-04T10:45:12.552Z,14.37
2018-06-04T10:47:42.932Z,15.07
2018-06-04T10:50:11.812Z,15.20
2018-06-04T10:52:43.307Z,17.13
2018-06-04T10:55:12.778Z,17.13
2018-06-04T10:57:43.992Z,15.63
2018-06-04T11:00:13.528Z,15.37
2018-06-04T11:02:49.111Z,17.27
2018-06-04T11:05:20.353Z,19.43
2018-06-04T11:07:54.936Z,22.57
2018-06-04T11:10:29.813Z,21.00
2018-06-04T11:12:58.423Z,21.47
2018-06-04T11:15:31.652Z,19.13
2018-06-04T11:18:05.377Z,27.03
2018-06-04T11:20:35.621Z,23.07
2018-06-04T11:23:06.112Z,19.83
2018-06-04T11:25:39.700Z,18.77
2018-06-04T11:28:10.792Z,15.63
2018-06-04T11:30:47.637Z,17.83
2018-06-04T11:33:21.871Z,14.17
2018-06-04T11:35:50.773Z,16.77
2018-06-04T11:38:21.761Z,13.67
2018-06-04T11:40:58.418Z,15.97
2018-06-04T11:43:30.421Z,17.57
2018-06-04T11:46:04.607Z,13.63
2018-06-04T11:48:41.259Z,14.97
2018-06-04T11:51:20.389Z,15.70
2018-06-04T11:53:56.370Z,17.13
2018-06-04T11:56:25.909Z,17.07
2018-06-04T11:58:59.784Z,15.00
2018-06-04T12:01:35.938Z,13.80
2018-06-04T12:04:05.281Z,16.30
2018-06-04T12:06:35.736Z,19.40
2018-06-04T12:09:07.256Z,15.97
2018-06-04T12:11:36.603Z,16.50
2018-06-04T12:14:06.558Z,16.73
2018-06-04T12:16:36.607Z,15.53
2018-06-04T12:19:06.619Z,15.20
2018-06-04T12:21:37.499Z,14.10
2018-06-04T12:24:17.592Z,12.87
2018-06-04T12:26:48.187Z,12.50
2018-06-04T12:29:18.015Z,11.60
2018-06-04T12:31:46.898Z,10.93
2018-06-04T12:34:15.714Z,10.10
2018-06-04T12:36:44.949Z,10.50
2018-06-04T12:39:14.981Z,9.93
2018-06-04T12:41:49.656Z,10.33
2018-06-04T12:44:23.650Z,9.90
2018-06-04T12:46:56.783Z,8.60
2018-06-04T12:49:34.748Z,8.73
2018-06-04T12:52:04.882Z,7.93
2018-06-04T12:54:42.629Z,8.50
2018-06-04T12:57:12.729Z,7.30
2018-06-04T12:59:42.920Z,7.90
2018-06-04T13:02:17.631Z,8.27
2018-06-04T13:04:48.933Z,8.73
2018-06-04T13:07:18.646Z,8.40
2018-06-04T13:09:50.408Z,8.27
2018-06-04T13:12:25.570Z,7.30
2018-06-04T13:14:55.115Z,8.90
2018-06-04T13:17:24.607Z,8.30
2018-06-04T13:19:53.694Z,8.00
2018-06-04T13:22:23.258Z,8.20
2018-06-04T13:24:57.622Z,8.13
2018-06-04T13:27:33.026Z,9.27
2018-06-04T13:30:07.279Z,9.03
2018-06-04T13:32:43.788Z,7.87
2018-06-04T13:35:13.260Z,7.70
2018-06-04T13:37:49.603Z,7.43
2018-06-04T13:40:28.284Z,8.17
2018-06-04T13:43:01.917Z,7.83
2018-06-04T13:45:31.499Z,7.33
2018-06-04T13:48:04.320Z,7.37
2018-06-04T13:50:34.294Z,7.47
2018-06-04T13:53:07.347Z,7.57
2018-06-04T13:55:39.683Z,8.07
2018-06-04T13:58:09.423Z,15.73
2018-06-04T14:00:41.452Z,7.67
2018-06-04T14:03:12.779Z,8.50
2018-06-04T14:05:51.155Z,8.63
2018-06-04T14:08:25.190Z,8.30
2018-06-04T14:11:06.665Z,7.80
2018-06-04T14:13:40.652Z,8.47
2018-06-04T14:16:14.329Z,9.20
2018-06-04T14:18:51.431Z,8.17
2018-06-04T14:21:24.575Z,8.73
2018-06-04T14:23:53.203Z,8.93
2018-06-04T14:26:25.292Z,8.00
2018-06-04T14:28:54.409Z,9.03
2018-06-04T14:31:24.101Z,7.13
2018-06-04T14:33:57.510Z,9.33
2018-06-04T14:36:35.238Z,8.43
2018-06-04T14:39:12.759Z,7.83
2018-06-04T14:41:50.928Z,8.03
2018-06-04T14:44:23.236Z,8.10
2018-06-04T14:46:55.487Z,6.80
2018-06-04T14:49:32.911Z,10.18
2018-06-04T14:52:09.308Z,7.97
2018-06-04T14:54:42.365Z,7.03
2018-06-04T14:57:19.037Z,6.73
2018-06-04T14:59:50.464Z,7.90
2018-06-04T15:02:27.036Z,7.40
2018-06-04T15:05:02.239Z,8.10
2018-06-04T15:08:11.981Z,7.73
2018-06-04T15:10:42.182Z,8.37
2018-06-04T15:13:23.123Z,46.93
2018-06-04T15:16:06.326Z,22.07
2018-06-04T15:18:54.000Z,10.00
2018-06-04T15:21:23.037Z,8.43
2018-06-04T15:23:53.167Z,7.67
2018-06-04T15:26:23.568Z,8.47
2018-06-04T15:28:54.838Z,7.83
2018-06-04T15:31:25.267Z,7.20
2018-06-04T15:33:54.103Z,7.70
2018-06-04T15:36:31.460Z,7.90
2018-06-04T15:39:10.529Z,7.43
2018-06-04T15:41:41.786Z,7.40
2018-06-04T15:44:19.812Z,8.67
2018-06-04T15:46:56.488Z,8.27
2018-06-04T15:49:35.238Z,7.43
2018-06-04T15:52:08.765Z,7.57
2018-06-04T15:54:43.721Z,8.50
2018-06-04T15:57:13.157Z,7.90
2018-06-04T15:59:42.675Z,7.83
2018-06-04T16:02:18.333Z,8.37
2018-06-04T16:04:48.813Z,8.77
2018-06-04T16:07:17.947Z,8.33
2018-06-04T16:09:47.558Z,7.63
2018-06-04T16:12:22.134Z,7.43
2018-06-04T16:14:56.270Z,9.10
2018-06-04T16:17:31.215Z,7.80
2018-06-04T16:20:06.849Z,8.57
2018-06-04T16:22:45.456Z,9.13
2018-06-04T16:25:14.864Z,9.67
2018-06-04T16:27:52.477Z,9.43
2018-06-04T16:30:21.244Z,9.17
2018-06-04T16:32:52.547Z,9.13
2018-06-04T16:35:22.781Z,8.83
2018-06-04T16:37:53.860Z,7.87
2018-06-04T16:40:22.769Z,8.73
2018-06-04T16:43:05.433Z,8.73
2018-06-04T16:45:35.400Z,9.30
2018-06-04T16:48:07.100Z,8.93
2018-06-04T16:50:38.420Z,9.13
2018-06-04T16:53:10.381Z,9.17
2018-06-04T16:58:19.533Z,9.43
2018-06-04T17:01:01.832Z,9.67
2018-06-04T17:03:33.523Z,9.73
2018-06-04T17:06:03.276Z,10.50
2018-06-04T17:08:33.553Z,10.50
2018-06-04T17:11:08.692Z,10.33
2018-06-04T17:13:37.456Z,9.87
2018-06-04T17:16:06.958Z,9.63
2018-06-04T17:18:45.239Z,9.47
2018-06-04T17:21:14.418Z,9.50
2018-06-04T17:23:45.132Z,10.20
2018-06-04T17:26:21.031Z,10.20
2018-06-04T17:28:51.911Z,10.53
2018-06-04T17:31:27.812Z,9.77
2018-06-04T17:33:59.501Z,9.80
2018-06-04T17:36:37.157Z,10.23
2018-06-04T17:39:14.311Z,10.67
2018-06-04T17:41:47.335Z,10.00
2018-06-04T17:44:20.955Z,10.63
2018-06-04T17:46:51.601Z,9.80
2018-06-04T17:49:23.192Z,10.13
2018-06-04T17:51:52.962Z,8.80
2018-06-04T17:54:22.251Z,9.40
2018-06-04T17:56:57.722Z,9.17
2018-06-04T17:59:33.491Z,9.83
2018-06-04T18:02:02.891Z,9.37
2018-06-04T18:04:38.369Z,10.03
2018-06-04T18:07:18.263Z,9.17
2018-06-04T18:09:53.678Z,8.80
2018-06-04T18:12:28.868Z,8.87
2018-06-04T18:15:04.508Z,9.87
2018-06-04T18:17:39.389Z,9.00
2018-06-04T18:20:08.315Z,9.23
2018-06-04T18:22:37.888Z,8.50
2018-06-04T18:25:16.612Z,8.23
2018-06-04T18:27:52.530Z,7.00
2018-06-04T18:30:46.930Z,8.13
2018-06-04T18:33:22.449Z,8.93
2018-06-04T18:35:58.388Z,8.07
2018-06-04T18:38:27.892Z,8.83
2018-06-04T18:41:02.395Z,9.07
2018-06-04T18:43:43.953Z,8.73
2018-06-04T18:46:14.936Z,8.33
2018-06-04T18:48:48.247Z,8.43
2018-06-04T18:51:29.454Z,7.87
2018-06-04T18:54:10.999Z,8.00
2018-06-04T18:56:46.114Z,8.07
2018-06-04T18:59:30.056Z,9.00
2018-06-04T19:02:00.492Z,8.70
2018-06-04T19:04:29.679Z,8.70
2018-06-04T19:07:06.171Z,8.93
2018-06-04T19:09:47.121Z,9.83
2018-06-04T19:12:17.918Z,10.87
2018-06-04T19:14:49.355Z,10.40
2018-06-04T19:17:21.468Z,14.03
2018-06-04T19:19:57.125Z,9.53
2018-06-04T19:22:28.685Z,8.83
2018-06-04T19:25:11.253Z,8.57
2018-06-04T19:27:41.924Z,10.03
2018-06-04T19:30:11.605Z,10.17
2018-06-04T19:36:00.245Z,8.80
2018-06-04T19:38:29.548Z,8.97
2018-06-04T19:41:05.838Z,10.43
2018-06-04T19:43:42.712Z,10.00
2018-06-04T19:46:37.790Z,11.00
2018-06-04T19:49:24.452Z,9.97
2018-06-04T19:52:24.876Z,10.33
2018-06-04T19:58:14.466Z,10.00
2018-06-04T20:00:54.924Z,11.37
2018-06-04T20:03:30.661Z,11.87
2018-06-04T20:06:01.356Z,11.00
2018-06-04T20:08:37.906Z,12.47
2018-06-04T20:11:15.026Z,11.37
2018-06-04T20:17:04.344Z,11.00
2018-06-04T20:19:50.280Z,11.40
2018-06-04T20:22:23.445Z,11.50
2018-06-04T20:24:57.035Z,11.57
2018-06-04T20:27:38.712Z,12.13
2018-06-04T20:30:28.847Z,12.43
2018-06-04T20:33:05.157Z,11.97
2018-06-04T20:35:47.391Z,13.67
2018-06-04T20:38:54.735Z,10.80
2018-06-04T20:41:57.976Z,12.50
2018-06-04T20:44:37.714Z,12.73
2018-06-04T20:47:34.502Z,12.50
2018-06-04T20:50:23.996Z,11.33
2018-06-04T20:56:09.736Z,12.33
2018-06-04T20:58:51.682Z,11.53
2018-06-04T21:02:53.450Z,11.30
2018-06-04T21:30:11.641Z,13.33
